Bell Ranch, New Mexico
Current Conditions -  °F | °C
As of 5:02 PM on Wednesday 22 Oct 2014 (Local Time) from KTCC Reporting Station
Scattered Clouds Scattered Clouds  
Wind Chill: 68°   Ceiling: Unl
Heat Index: 68°   Visibility: 10mi
Dew Point: 57°   Wind: 10mph
Humidity: 68%   Direction: 140°SE
Pressure: 30.01"   Gusts: NA
Location:  35.59°N, 104.11°W
Report Text: KTCC 222302Z AUTO 14009KT 10SM SCT065 20/14 A3001 RMK AO2 TSE2256 T02000139
Loading
Personal Weather Stations






























Interactive Weather Map
Tropical Storm Tracking
New forecast layout! Learn more

10-Day Weather Forecast

Advertisements
Track Severe Weather on mobile